createdAt,value
2023-05-04T00:01:11.691Z,1.98
2023-05-04T00:04:14.366Z,2.00
2023-05-04T00:07:16.818Z,2.20
2023-05-04T00:10:19.306Z,1.67
2023-05-04T00:13:22.377Z,1.70
2023-05-04T00:16:24.831Z,1.95
2023-05-04T00:19:27.120Z,2.00
2023-05-04T00:22:29.241Z,1.73
2023-05-04T00:25:31.813Z,1.70
2023-05-04T00:28:34.187Z,1.58
2023-05-04T00:31:36.717Z,1.88
2023-05-04T00:34:39.169Z,1.80
2023-05-04T00:37:43.917Z,2.17
2023-05-04T00:40:46.419Z,2.13
2023-05-04T00:43:49.470Z,1.98
2023-05-04T00:46:53.312Z,2.03
2023-05-04T00:50:02.265Z,1.83
2023-05-04T00:53:09.547Z,2.00
2023-05-04T00:56:12.905Z,2.22
2023-05-04T00:59:15.846Z,1.80
2023-05-04T01:02:18.148Z,1.88
2023-05-04T01:05:20.673Z,2.22
2023-05-04T01:08:31.562Z,2.30
2023-05-04T01:12:12.638Z,2.70
2023-05-04T01:15:15.883Z,2.60
2023-05-04T01:18:18.243Z,2.35
2023-05-04T01:21:20.923Z,2.67
2023-05-04T01:24:24.531Z,2.15
2023-05-04T01:27:37.761Z,2.22
2023-05-04T01:30:43.757Z,2.60
2023-05-04T01:33:46.595Z,2.35
2023-05-04T01:36:49.817Z,2.35
2023-05-04T01:39:52.221Z,2.30
2023-05-04T01:42:54.718Z,2.72
2023-05-04T01:45:56.952Z,2.38
2023-05-04T01:48:59.277Z,2.63
2023-05-04T01:52:02.187Z,2.10
2023-05-04T01:55:04.622Z,2.28
2023-05-04T01:58:08.616Z,2.72
2023-05-04T02:01:10.901Z,2.58
2023-05-04T02:04:13.336Z,2.83
2023-05-04T02:07:15.623Z,2.78
2023-05-04T02:10:18.319Z,2.58
2023-05-04T02:13:20.653Z,2.17
2023-05-04T02:16:23.483Z,2.80
2023-05-04T02:19:25.783Z,2.65
2023-05-04T02:22:28.061Z,2.25
2023-05-04T02:25:30.844Z,2.95
2023-05-04T02:28:33.046Z,2.40
2023-05-04T02:31:35.565Z,2.50
2023-05-04T02:34:37.832Z,2.47
2023-05-04T02:37:40.134Z,2.30
2023-05-04T02:40:42.404Z,2.53
2023-05-04T02:43:44.619Z,2.75
2023-05-04T02:46:46.859Z,2.95
2023-05-04T02:49:49.160Z,2.42
2023-05-04T02:52:52.881Z,2.60
2023-05-04T02:55:55.330Z,2.38
2023-05-04T02:58:57.926Z,2.80
2023-05-04T03:02:00.326Z,2.72
2023-05-04T03:05:03.068Z,2.90
2023-05-04T03:08:05.609Z,3.10
2023-05-04T03:11:08.013Z,2.80
2023-05-04T03:14:10.299Z,2.70
2023-05-04T03:17:12.571Z,3.30
2023-05-04T03:20:15.276Z,3.08
2023-05-04T03:23:18.020Z,2.83
2023-05-04T03:26:20.423Z,2.70
2023-05-04T03:29:23.871Z,3.00
2023-05-04T03:32:27.267Z,3.22
2023-05-04T03:35:29.648Z,3.33
2023-05-04T03:38:33.039Z,3.05
2023-05-04T03:41:35.321Z,3.03
2023-05-04T03:44:37.583Z,3.08
2023-05-04T03:47:40.032Z,3.45
2023-05-04T03:50:42.606Z,3.00
2023-05-04T03:53:45.073Z,2.80
2023-05-04T03:56:49.674Z,3.03
2023-05-04T03:59:53.709Z,3.42
2023-05-04T04:02:58.381Z,3.28
2023-05-04T04:06:02.034Z,2.70
2023-05-04T04:09:04.525Z,2.80
2023-05-04T04:12:06.999Z,3.40
2023-05-04T04:15:09.683Z,3.00
2023-05-04T04:18:12.226Z,3.00
2023-05-04T04:21:14.770Z,3.25
2023-05-04T04:24:17.161Z,3.00
2023-05-04T04:27:19.518Z,3.40
2023-05-04T04:30:22.063Z,3.63
2023-05-04T04:33:24.399Z,3.42
2023-05-04T04:36:27.030Z,3.45
2023-05-04T04:39:29.408Z,3.17
2023-05-04T04:42:32.473Z,3.42
2023-05-04T04:45:35.412Z,3.03
2023-05-04T04:48:38.072Z,3.60
2023-05-04T04:51:43.626Z,3.70
2023-05-04T04:54:46.196Z,4.50
2023-05-04T04:57:48.428Z,3.42
2023-05-04T05:00:52.999Z,3.55
2023-05-04T05:03:55.407Z,3.97
2023-05-04T05:06:57.732Z,3.65
2023-05-04T05:10:00.022Z,3.60
2023-05-04T05:13:02.447Z,3.47
2023-05-04T05:16:05.077Z,3.55
2023-05-04T05:19:07.275Z,3.50
2023-05-04T05:22:09.617Z,3.60
2023-05-04T05:25:12.642Z,3.75
2023-05-04T05:28:14.916Z,3.38
2023-05-04T05:31:17.225Z,3.90
2023-05-04T05:34:19.532Z,4.22
2023-05-04T05:37:21.966Z,3.55
2023-05-04T05:40:24.255Z,3.83
2023-05-04T05:43:26.606Z,3.40
2023-05-04T05:46:29.100Z,3.78
2023-05-04T05:49:31.632Z,3.10
2023-05-04T05:52:33.989Z,3.53
2023-05-04T05:55:36.365Z,3.85
2023-05-04T05:58:38.589Z,3.53
2023-05-04T06:01:40.852Z,3.75
2023-05-04T06:04:45.282Z,3.88
2023-05-04T06:07:47.552Z,3.65
2023-05-04T06:10:51.686Z,3.53
2023-05-04T06:13:54.208Z,3.53
2023-05-04T06:16:56.493Z,4.50
2023-05-04T06:19:58.727Z,3.78
2023-05-04T06:23:01.100Z,3.97
2023-05-04T06:26:08.290Z,4.07
2023-05-04T06:29:10.651Z,4.07
2023-05-04T06:32:12.999Z,3.40
2023-05-04T06:35:15.594Z,3.28
2023-05-04T06:38:17.962Z,3.38
2023-05-04T06:41:20.225Z,2.83
2023-05-04T06:44:22.986Z,3.45
2023-05-04T06:47:25.659Z,3.53
2023-05-04T06:50:28.162Z,3.28
2023-05-04T06:53:30.458Z,3.72
2023-05-04T06:56:33.075Z,3.10
2023-05-04T06:59:35.290Z,3.15
2023-05-04T07:02:37.547Z,3.30
2023-05-04T07:05:40.310Z,3.20
2023-05-04T07:08:42.682Z,3.20
2023-05-04T07:11:45.066Z,3.50
2023-05-04T07:14:47.361Z,3.50
2023-05-04T07:17:50.111Z,3.10
2023-05-04T07:20:54.239Z,3.45
2023-05-04T07:23:58.503Z,3.22
2023-05-04T07:27:01.360Z,3.65
2023-05-04T07:30:04.518Z,3.80
2023-05-04T07:33:06.968Z,2.95
2023-05-04T07:36:09.552Z,2.97
2023-05-04T07:39:12.851Z,3.70
2023-05-04T07:42:15.104Z,3.40
2023-05-04T07:45:17.821Z,3.53
2023-05-04T07:48:20.995Z,2.90
2023-05-04T07:51:23.772Z,3.67
2023-05-04T07:54:26.183Z,3.00
2023-05-04T07:57:28.497Z,2.85
2023-05-04T08:00:30.767Z,2.70
2023-05-04T08:03:33.199Z,2.97
2023-05-04T08:06:39.544Z,3.33
2023-05-04T08:09:42.103Z,2.85
2023-05-04T08:12:44.533Z,2.78
2023-05-04T08:15:47.078Z,2.70
2023-05-04T08:18:49.373Z,2.55
2023-05-04T08:21:51.635Z,2.90
2023-05-04T08:24:53.915Z,3.22
2023-05-04T08:27:56.557Z,2.78
2023-05-04T08:30:59.088Z,3.17
2023-05-04T08:34:01.878Z,2.50
2023-05-04T08:37:04.867Z,2.90
2023-05-04T08:40:08.492Z,3.08
2023-05-04T08:43:11.290Z,2.95
2023-05-04T08:46:14.699Z,2.88
2023-05-04T08:49:16.991Z,2.55
2023-05-04T08:52:20.115Z,2.20
2023-05-04T08:55:22.654Z,2.70
2023-05-04T08:58:27.341Z,2.33
2023-05-04T09:01:31.496Z,2.35
2023-05-04T09:04:33.892Z,2.90
2023-05-04T09:07:36.425Z,2.60
2023-05-04T09:10:38.766Z,2.55
2023-05-04T09:13:42.984Z,2.60
2023-05-04T09:16:45.361Z,2.90
2023-05-04T09:20:01.766Z,3.08
2023-05-04T09:23:08.947Z,2.70
2023-05-04T09:26:11.462Z,3.00
2023-05-04T09:29:15.286Z,2.95
2023-05-04T09:32:17.510Z,3.25
2023-05-04T09:35:33.658Z,2.72
2023-05-04T09:38:36.929Z,2.67
2023-05-04T09:41:39.576Z,3.30
2023-05-04T09:44:41.762Z,2.72
2023-05-04T09:47:45.010Z,2.70
2023-05-04T09:50:58.447Z,2.72
2023-05-04T09:54:05.286Z,2.65
2023-05-04T09:57:13.313Z,2.80
2023-05-04T10:00:17.583Z,2.67
2023-05-04T10:03:23.513Z,2.63
2023-05-04T10:06:28.583Z,2.80
2023-05-04T10:09:32.285Z,2.95
2023-05-04T10:12:34.792Z,2.80
2023-05-04T10:15:42.634Z,3.30
2023-05-04T10:18:58.986Z,3.05
2023-05-04T10:22:13.152Z,3.58
2023-05-04T10:25:59.793Z,3.30
2023-05-04T10:29:17.842Z,3.10
2023-05-04T10:32:21.877Z,3.60
2023-05-04T10:35:25.035Z,4.00
2023-05-04T10:38:35.134Z,3.47
2023-05-04T10:41:37.452Z,3.28
2023-05-04T10:45:01.709Z,3.90
2023-05-04T10:48:05.352Z,3.40
2023-05-04T10:51:35.715Z,3.58
2023-05-04T10:54:45.358Z,3.30
2023-05-04T10:57:54.431Z,4.47
2023-05-04T11:00:56.888Z,3.85
2023-05-04T11:03:59.239Z,3.72
2023-05-04T11:07:06.910Z,3.75
2023-05-04T11:10:24.701Z,4.43
2023-05-04T11:13:27.863Z,3.92
2023-05-04T11:16:30.111Z,3.95
2023-05-04T11:19:33.958Z,3.90
2023-05-04T11:22:37.560Z,4.10
2023-05-04T11:25:39.864Z,3.40
2023-05-04T11:28:42.833Z,4.30
2023-05-04T11:31:54.980Z,4.45
2023-05-04T11:34:57.751Z,3.45
2023-05-04T11:38:00.080Z,3.92
2023-05-04T11:41:02.977Z,3.70
2023-05-04T11:44:06.483Z,3.15
2023-05-04T11:47:09.264Z,3.00
2023-05-04T11:50:13.746Z,4.18
2023-05-04T11:53:21.702Z,4.13
2023-05-04T11:56:24.432Z,3.95
2023-05-04T11:59:26.713Z,3.47
2023-05-04T12:02:29.019Z,4.05
2023-05-04T12:05:31.996Z,4.15
2023-05-04T12:08:36.181Z,4.25
2023-05-04T12:11:38.641Z,3.40
2023-05-04T12:14:50.917Z,3.55
2023-05-04T12:17:53.390Z,4.13
2023-05-04T12:20:55.614Z,3.50
2023-05-04T12:23:58.049Z,3.88
2023-05-04T12:27:00.237Z,3.70
2023-05-04T12:30:02.531Z,3.50
2023-05-04T12:33:05.841Z,3.92
2023-05-04T12:36:08.456Z,3.42
2023-05-04T12:39:10.738Z,3.92
2023-05-04T12:42:13.034Z,3.30
2023-05-04T12:45:16.506Z,3.50
2023-05-04T12:48:20.660Z,3.35
2023-05-04T12:51:23.055Z,3.50
2023-05-04T12:54:25.676Z,3.85
2023-05-04T12:57:27.980Z,3.65
2023-05-04T13:00:35.974Z,4.00
2023-05-04T13:03:38.436Z,3.45
2023-05-04T13:06:41.005Z,3.45
2023-05-04T13:09:43.435Z,3.40
2023-05-04T13:12:46.306Z,3.95
2023-05-04T13:15:52.031Z,3.72
2023-05-04T13:18:55.564Z,4.32
2023-05-04T13:21:57.797Z,4.15
2023-05-04T13:25:00.579Z,4.10
2023-05-04T13:28:03.017Z,4.00
2023-05-04T13:31:06.315Z,3.97
2023-05-04T13:34:08.918Z,3.70
2023-05-04T13:37:16.889Z,4.10
2023-05-04T13:40:19.316Z,4.07
2023-05-04T13:43:22.428Z,4.28
2023-05-04T13:46:24.739Z,3.53
2023-05-04T13:49:27.188Z,4.10
2023-05-04T13:52:29.372Z,3.65
2023-05-04T13:55:31.773Z,4.45
2023-05-04T13:58:34.186Z,4.10
2023-05-04T14:01:36.516Z,4.72
2023-05-04T14:04:39.985Z,4.03
2023-05-04T14:07:42.426Z,3.60
2023-05-04T14:10:44.744Z,4.00
2023-05-04T14:13:48.768Z,4.32
2023-05-04T14:16:51.269Z,3.38
2023-05-04T14:19:53.664Z,3.83
2023-05-04T14:22:55.924Z,3.95
2023-05-04T14:25:58.255Z,3.80
2023-05-04T14:29:00.563Z,3.88
2023-05-04T14:32:02.866Z,3.72
2023-05-04T14:35:10.037Z,3.42
2023-05-04T14:38:13.455Z,4.70
2023-05-04T14:41:15.883Z,3.80
2023-05-04T14:44:18.083Z,4.15
2023-05-04T14:47:20.395Z,4.18
2023-05-04T14:50:22.973Z,3.95
2023-05-04T14:53:26.389Z,3.95
2023-05-04T14:56:28.717Z,3.97
2023-05-04T14:59:30.990Z,3.55
2023-05-04T15:02:33.578Z,4.25
2023-05-04T15:05:36.040Z,3.45
2023-05-04T15:08:38.275Z,3.53
2023-05-04T15:11:40.467Z,3.88
2023-05-04T15:14:42.675Z,3.30
2023-05-04T15:17:44.950Z,3.45
2023-05-04T15:20:47.127Z,3.40
2023-05-04T15:23:49.415Z,3.97
2023-05-04T15:26:51.649Z,3.80
2023-05-04T15:29:55.001Z,3.90
2023-05-04T15:32:57.379Z,3.35
2023-05-04T15:35:59.832Z,3.72
2023-05-04T15:39:02.851Z,3.75
2023-05-04T15:42:05.170Z,3.65
2023-05-04T15:45:09.902Z,3.38
2023-05-04T15:48:16.016Z,3.00
2023-05-04T15:51:19.012Z,2.80
2023-05-04T15:54:21.669Z,2.30
2023-05-04T15:57:23.870Z,2.53
2023-05-04T16:00:26.265Z,2.53
2023-05-04T16:03:28.663Z,2.40
2023-05-04T16:06:31.517Z,2.30
2023-05-04T16:09:34.349Z,2.45
2023-05-04T16:12:36.683Z,2.28
2023-05-04T16:15:39.135Z,2.50
2023-05-04T16:18:41.476Z,2.83
2023-05-04T16:21:43.803Z,3.00
2023-05-04T16:24:46.975Z,3.45
2023-05-04T16:27:49.278Z,16.33
2023-05-04T16:30:51.565Z,21.50
2023-05-04T16:34:00.349Z,21.98
2023-05-04T16:37:02.711Z,14.90
2023-05-04T16:40:15.510Z,15.85
2023-05-04T16:43:17.804Z,14.40
2023-05-04T16:46:20.049Z,12.85
2023-05-04T16:49:22.343Z,12.85
2023-05-04T16:52:24.856Z,11.90
2023-05-04T16:55:27.528Z,11.88
2023-05-04T16:58:29.967Z,11.85
2023-05-04T17:04:52.228Z,11.30
2023-05-04T17:07:54.572Z,11.18
2023-05-04T17:11:00.250Z,10.98
2023-05-04T17:14:03.851Z,9.82
2023-05-04T17:17:07.086Z,10.38
2023-05-04T17:20:14.931Z,9.65
2023-05-04T17:23:17.416Z,9.52
2023-05-04T17:26:19.991Z,8.50
2023-05-04T17:29:22.199Z,7.65
2023-05-04T17:32:24.867Z,7.72
2023-05-04T17:35:27.619Z,7.50
2023-05-04T17:38:30.120Z,7.82
2023-05-04T17:41:32.439Z,8.35
2023-05-04T17:44:34.670Z,6.93
2023-05-04T17:47:37.064Z,6.90
2023-05-04T17:50:41.120Z,6.78
2023-05-04T17:53:43.457Z,6.38
2023-05-04T17:56:46.359Z,5.72
2023-05-04T17:59:49.521Z,6.18
2023-05-04T18:02:51.918Z,6.38
2023-05-04T18:05:54.215Z,5.95
2023-05-04T18:08:56.561Z,5.72
2023-05-04T18:11:58.740Z,6.15
2023-05-04T18:15:00.957Z,5.97
2023-05-04T18:18:03.326Z,5.75
2023-05-04T18:21:05.745Z,5.07
2023-05-04T18:24:08.600Z,5.68
2023-05-04T18:27:10.878Z,5.30
2023-05-04T18:30:13.507Z,5.50
2023-05-04T18:33:15.796Z,5.00
2023-05-04T18:36:18.896Z,5.00
2023-05-04T18:39:21.114Z,5.03
2023-05-04T18:42:23.399Z,4.57
2023-05-04T18:45:25.680Z,4.40
2023-05-04T18:48:28.271Z,4.32
2023-05-04T18:51:31.243Z,4.32
2023-05-04T18:54:33.878Z,4.13
2023-05-04T18:57:36.528Z,4.07
2023-05-04T19:00:38.740Z,3.75
2023-05-04T19:03:40.999Z,4.93
2023-05-04T19:06:43.339Z,4.30
2023-05-04T19:09:46.236Z,4.22
2023-05-04T19:12:50.498Z,4.20
2023-05-04T19:15:52.848Z,3.75
2023-05-04T19:18:55.841Z,3.35
2023-05-04T19:21:58.803Z,4.00
2023-05-04T19:25:00.983Z,3.80
2023-05-04T19:28:08.930Z,3.90
2023-05-04T19:31:11.592Z,3.60
2023-05-04T19:34:15.588Z,3.38
2023-05-04T19:37:20.036Z,4.38
2023-05-04T19:40:22.333Z,3.90
2023-05-04T19:43:24.617Z,3.83
2023-05-04T19:46:27.015Z,3.30
2023-05-04T19:49:29.541Z,3.63
2023-05-04T19:52:31.826Z,3.63
2023-05-04T19:55:34.546Z,3.63
2023-05-04T19:58:37.974Z,3.25
2023-05-04T20:01:40.300Z,3.55
2023-05-04T20:04:42.639Z,3.47
2023-05-04T20:07:44.920Z,3.95
2023-05-04T20:10:47.387Z,3.45
2023-05-04T20:13:49.658Z,3.90
2023-05-04T20:16:52.750Z,3.63
2023-05-04T20:19:55.291Z,3.30
2023-05-04T20:22:57.609Z,4.47
2023-05-04T20:25:59.843Z,4.22
2023-05-04T20:29:02.081Z,4.38
2023-05-04T20:32:05.829Z,3.83
2023-05-04T20:35:09.083Z,3.83
2023-05-04T20:38:11.802Z,3.67
2023-05-04T20:41:14.113Z,4.70
2023-05-04T20:44:17.394Z,3.78
2023-05-04T20:47:19.907Z,4.15
2023-05-04T20:50:22.383Z,4.07
2023-05-04T20:53:24.820Z,4.38
2023-05-04T20:56:27.469Z,3.75
2023-05-04T20:59:29.938Z,3.65
2023-05-04T21:02:32.228Z,3.97
2023-05-04T21:05:37.968Z,4.45
2023-05-04T21:08:40.252Z,4.05
2023-05-04T21:11:42.534Z,3.45
2023-05-04T21:14:58.999Z,3.90
2023-05-04T21:18:01.301Z,4.50
2023-05-04T21:21:23.915Z,4.80
2023-05-04T21:24:26.329Z,4.00
2023-05-04T21:27:28.664Z,3.88
2023-05-04T21:30:30.956Z,4.47
2023-05-04T21:33:33.130Z,4.20
2023-05-04T21:36:35.717Z,4.43
2023-05-04T21:39:37.996Z,3.95
2023-05-04T21:42:40.255Z,5.05
2023-05-04T21:45:42.635Z,3.90
2023-05-04T21:48:44.899Z,3.78
2023-05-04T21:51:47.086Z,3.63
2023-05-04T21:54:49.691Z,4.32
2023-05-04T21:57:51.969Z,4.47
2023-05-04T22:00:54.963Z,3.67
2023-05-04T22:03:57.720Z,4.18
2023-05-04T22:07:00.117Z,4.53
2023-05-04T22:10:03.425Z,3.90
2023-05-04T22:13:05.926Z,4.45
2023-05-04T22:16:11.259Z,4.05
2023-05-04T22:19:13.798Z,3.85
2023-05-04T22:22:16.126Z,4.78
2023-05-04T22:25:18.383Z,3.72
2023-05-04T22:28:21.048Z,4.50
2023-05-04T22:31:23.488Z,4.60
2023-05-04T22:34:25.897Z,5.00
2023-05-04T22:37:28.191Z,4.80
2023-05-04T22:40:30.688Z,4.05
2023-05-04T22:43:32.973Z,5.05
2023-05-04T22:46:35.291Z,4.97
2023-05-04T22:49:38.039Z,4.68
2023-05-04T22:52:40.686Z,4.55
2023-05-04T22:55:43.104Z,4.05
2023-05-04T22:58:48.280Z,5.20
2023-05-04T23:01:50.834Z,4.55
2023-05-04T23:04:53.481Z,5.80
2023-05-04T23:07:55.818Z,6.50
2023-05-04T23:10:58.069Z,5.70
2023-05-04T23:14:00.289Z,5.20
2023-05-04T23:17:03.084Z,5.68
2023-05-04T23:20:07.484Z,4.95
2023-05-04T23:23:09.916Z,5.35
2023-05-04T23:26:12.549Z,5.53
2023-05-04T23:29:14.921Z,5.70
2023-05-04T23:32:17.294Z,5.93
2023-05-04T23:35:19.597Z,5.32
2023-05-04T23:38:23.059Z,5.63
2023-05-04T23:41:25.366Z,5.72
2023-05-04T23:44:27.769Z,5.55
2023-05-04T23:47:30.103Z,5.45
2023-05-04T23:50:32.509Z,5.82
2023-05-04T23:53:38.282Z,5.70
2023-05-04T23:56:40.524Z,5.93
2023-05-04T23:59:42.826Z,6.22
